createdAt,value
2017-10-11T00:00:48.182Z,84.84
2017-10-11T00:03:16.526Z,84.51
2017-10-11T00:05:44.871Z,83.77
2017-10-11T00:08:13.943Z,83.80
2017-10-11T00:10:42.250Z,83.21
2017-10-11T00:13:10.575Z,83.20
2017-10-11T00:15:38.934Z,83.01
2017-10-11T00:18:07.259Z,82.73
2017-10-11T00:20:35.573Z,82.51
2017-10-11T00:23:03.897Z,82.67
2017-10-11T00:25:32.209Z,82.73
2017-10-11T00:28:00.555Z,82.69
2017-10-11T00:30:28.864Z,82.99
2017-10-11T00:32:57.951Z,82.62
2017-10-11T00:35:27.039Z,82.67
2017-10-11T00:37:55.363Z,82.34
2017-10-11T00:40:23.686Z,82.38
2017-10-11T00:42:51.986Z,82.29
2017-10-11T00:45:21.111Z,81.96
2017-10-11T00:47:49.424Z,81.75
2017-10-11T00:50:17.774Z,81.90
2017-10-11T00:52:46.098Z,82.10
2017-10-11T00:55:14.402Z,82.38
2017-10-11T00:57:42.716Z,82.22
2017-10-11T01:00:11.022Z,82.41
2017-10-11T01:02:39.345Z,82.64
2017-10-11T01:05:07.662Z,82.52
2017-10-11T01:07:36.008Z,82.60
2017-10-11T01:10:04.309Z,82.99
2017-10-11T01:12:32.635Z,83.00
2017-10-11T01:15:01.707Z,82.78
2017-10-11T01:17:30.035Z,82.77
2017-10-11T01:19:58.362Z,82.76
2017-10-11T01:22:26.669Z,82.40
2017-10-11T01:24:55.750Z,82.73
2017-10-11T01:27:24.838Z,82.19
2017-10-11T01:29:53.156Z,81.99
2017-10-11T01:32:21.479Z,81.86
2017-10-11T01:34:49.798Z,81.49
2017-10-11T01:37:18.154Z,81.40
2017-10-11T01:39:47.282Z,81.41
2017-10-11T01:42:15.584Z,81.38
2017-10-11T01:44:44.655Z,81.23
2017-10-11T01:47:13.122Z,81.22
2017-10-11T01:49:41.436Z,81.45
2017-10-11T01:52:09.759Z,81.43
2017-10-11T01:54:38.866Z,81.71
2017-10-11T01:57:07.945Z,82.07
2017-10-11T01:59:36.261Z,82.10
2017-10-11T02:02:04.583Z,82.15
2017-10-11T02:04:32.900Z,81.93
2017-10-11T02:07:01.246Z,82.37
2017-10-11T02:09:29.550Z,82.42
2017-10-11T02:11:57.867Z,82.77
2017-10-11T02:14:26.190Z,82.82
2017-10-11T02:16:55.265Z,82.94
2017-10-11T02:19:23.609Z,82.93
2017-10-11T02:21:51.919Z,83.01
2017-10-11T02:24:20.256Z,82.92
2017-10-11T02:26:48.562Z,82.79
2017-10-11T02:29:16.918Z,82.98
2017-10-11T02:31:45.217Z,83.15
2017-10-11T02:34:14.302Z,83.16
2017-10-11T02:36:42.629Z,82.90
2017-10-11T02:39:11.728Z,83.03
2017-10-11T02:41:40.804Z,83.04
2017-10-11T02:44:09.108Z,83.29
2017-10-11T02:46:38.190Z,83.25
2017-10-11T02:49:07.261Z,83.57
2017-10-11T02:51:35.607Z,83.25
2017-10-11T02:54:03.924Z,83.07
2017-10-11T02:56:32.242Z,82.74
2017-10-11T02:59:00.553Z,82.33
2017-10-11T03:01:28.860Z,82.11
2017-10-11T03:03:57.950Z,82.07
2017-10-11T03:06:26.278Z,82.10
2017-10-11T03:08:54.585Z,82.07
2017-10-11T03:11:23.654Z,82.14
2017-10-11T03:13:51.957Z,82.22
2017-10-11T03:16:20.257Z,82.57
2017-10-11T03:18:48.565Z,82.78
2017-10-11T03:21:16.878Z,82.85
2017-10-11T03:23:45.197Z,82.62
2017-10-11T03:26:14.273Z,82.45
2017-10-11T03:28:42.577Z,82.54
2017-10-11T03:31:11.649Z,82.60
2017-10-11T03:33:39.964Z,82.69
2017-10-11T03:36:08.333Z,83.02
2017-10-11T03:38:37.400Z,83.13
2017-10-11T03:41:05.714Z,83.02
2017-10-11T03:43:34.018Z,83.13
2017-10-11T03:46:02.325Z,83.17
2017-10-11T03:48:30.656Z,83.18
2017-10-11T03:50:58.959Z,83.24
2017-10-11T03:53:27.267Z,83.01
2017-10-11T03:55:56.346Z,82.91
2017-10-11T03:58:24.681Z,82.63
2017-10-11T04:00:52.981Z,82.49
2017-10-11T04:03:21.446Z,82.18
2017-10-11T04:05:49.745Z,82.13
2017-10-11T04:08:18.039Z,81.85
2017-10-11T04:10:46.389Z,81.03
2017-10-11T04:13:14.691Z,80.93
2017-10-11T04:15:43.001Z,80.61
2017-10-11T04:18:12.066Z,80.73
2017-10-11T04:20:40.387Z,80.63
2017-10-11T04:23:08.686Z,80.50
2017-10-11T04:25:37.017Z,80.39
2017-10-11T04:28:05.329Z,80.56
2017-10-11T04:30:33.621Z,80.27
2017-10-11T04:33:01.929Z,80.41
2017-10-11T04:35:30.223Z,80.49
2017-10-11T04:37:58.531Z,80.59
2017-10-11T04:40:26.942Z,79.91
2017-10-11T04:42:55.268Z,80.00
2017-10-11T04:45:24.349Z,79.46
2017-10-11T04:47:52.675Z,79.53
2017-10-11T04:50:20.969Z,78.75
2017-10-11T04:52:49.295Z,78.97
2017-10-11T04:55:18.418Z,78.88
2017-10-11T04:57:46.723Z,78.41
2017-10-11T05:00:15.030Z,78.70
2017-10-11T05:02:43.338Z,78.89
2017-10-11T05:05:11.645Z,78.88
2017-10-11T05:07:39.960Z,79.15
2017-10-11T05:10:08.289Z,79.36
2017-10-11T05:12:36.603Z,79.19
2017-10-11T05:15:04.949Z,79.19
2017-10-11T05:17:33.250Z,78.78
2017-10-11T05:20:01.553Z,78.98
2017-10-11T05:22:29.874Z,79.10
2017-10-11T05:24:58.166Z,78.69
2017-10-11T05:27:26.474Z,78.57
2017-10-11T05:29:54.768Z,79.05
2017-10-11T05:32:23.845Z,78.81
2017-10-11T05:34:52.136Z,78.64
2017-10-11T05:37:20.457Z,79.73
2017-10-11T05:39:48.769Z,78.82
2017-10-11T05:42:17.073Z,78.40
2017-10-11T05:44:46.154Z,78.05
2017-10-11T05:47:14.446Z,78.07
2017-10-11T05:49:43.518Z,77.94
2017-10-11T05:52:11.819Z,77.57
2017-10-11T05:54:40.884Z,77.59
2017-10-11T05:57:09.177Z,77.64
2017-10-11T05:59:37.511Z,78.02
2017-10-11T06:02:05.800Z,78.04
2017-10-11T06:04:34.104Z,77.55
2017-10-11T06:07:02.422Z,77.65
2017-10-11T06:09:30.717Z,77.77
2017-10-11T06:11:59.026Z,78.22
2017-10-11T06:14:27.316Z,78.10
2017-10-11T06:16:55.629Z,78.27
2017-10-11T06:19:23.921Z,78.42
2017-10-11T06:21:52.264Z,78.12
2017-10-11T06:24:20.573Z,78.05
2017-10-11T06:26:48.871Z,77.82
2017-10-11T06:29:17.188Z,77.72
2017-10-11T06:31:46.251Z,77.67
2017-10-11T06:34:14.570Z,77.69
2017-10-11T06:36:43.661Z,77.77
2017-10-11T06:39:12.751Z,78.06
2017-10-11T06:41:41.823Z,78.33
2017-10-11T06:44:10.142Z,78.71
2017-10-11T06:46:38.442Z,78.24
2017-10-11T06:49:06.741Z,77.96
2017-10-11T06:51:35.062Z,77.92
2017-10-11T06:54:04.133Z,77.78
2017-10-11T06:56:32.440Z,77.03
2017-10-11T06:59:01.542Z,76.28
2017-10-11T07:01:30.645Z,76.86
2017-10-11T07:03:58.946Z,77.84
2017-10-11T07:06:27.259Z,76.80
2017-10-11T07:08:55.565Z,77.67
2017-10-11T07:11:23.898Z,77.62
2017-10-11T07:13:52.193Z,77.26
2017-10-11T07:16:20.508Z,76.92
2017-10-11T07:18:48.821Z,77.02
2017-10-11T07:21:17.117Z,76.63
2017-10-11T07:23:45.429Z,77.52
2017-10-11T07:26:13.730Z,77.74
2017-10-11T07:28:42.037Z,78.18
2017-10-11T07:31:10.338Z,78.18
2017-10-11T07:33:40.221Z,77.56
2017-10-11T07:36:08.530Z,77.67
2017-10-11T07:38:36.825Z,77.71
2017-10-11T07:41:05.899Z,77.37
2017-10-11T07:43:34.194Z,77.36
2017-10-11T07:46:03.289Z,77.54
2017-10-11T07:48:32.367Z,77.74
2017-10-11T07:51:00.679Z,77.95
2017-10-11T07:53:28.969Z,77.47
2017-10-11T07:55:57.296Z,77.90
2017-10-11T07:58:25.606Z,78.22
2017-10-11T08:00:53.913Z,79.52
2017-10-11T08:03:22.227Z,79.59
2017-10-11T08:05:50.531Z,80.68
2017-10-11T08:08:18.858Z,81.25
2017-10-11T08:10:47.163Z,81.02
2017-10-11T08:13:15.472Z,80.95
2017-10-11T08:15:43.777Z,80.47
2017-10-11T08:18:12.121Z,78.69
2017-10-11T08:20:40.414Z,78.58
2017-10-11T08:23:08.708Z,77.67
2017-10-11T08:25:37.009Z,77.83
2017-10-11T08:28:05.475Z,78.00
2017-10-11T08:30:34.050Z,77.78
2017-10-11T08:33:02.354Z,77.24
2017-10-11T08:35:30.658Z,78.41
2017-10-11T08:37:59.808Z,77.62
2017-10-11T08:40:28.120Z,77.02
2017-10-11T08:42:56.421Z,77.71
2017-10-11T08:45:24.725Z,76.59
2017-10-11T08:47:53.024Z,75.71
2017-10-11T08:50:21.328Z,74.68
2017-10-11T08:52:50.409Z,73.79
2017-10-11T08:55:18.705Z,73.39
2017-10-11T08:57:47.782Z,74.55
2017-10-11T09:00:16.082Z,74.30
2017-10-11T09:02:45.167Z,74.27
2017-10-11T09:05:14.237Z,74.27
2017-10-11T09:07:42.599Z,73.99
2017-10-11T09:10:10.901Z,74.10
2017-10-11T09:12:39.197Z,74.07
2017-10-11T09:15:08.286Z,73.71
2017-10-11T09:17:36.586Z,74.11
2017-10-11T09:20:04.906Z,73.75
2017-10-11T09:22:33.210Z,73.87
2017-10-11T09:25:01.530Z,72.71
2017-10-11T09:27:29.830Z,72.37
2017-10-11T09:29:58.158Z,72.22
2017-10-11T09:32:27.230Z,71.96
2017-10-11T09:34:55.559Z,71.11
2017-10-11T09:37:23.873Z,73.05
2017-10-11T09:39:52.167Z,70.83
2017-10-11T09:42:20.466Z,71.68
2017-10-11T09:44:49.533Z,72.10
2017-10-11T09:47:17.842Z,71.89
2017-10-11T09:49:46.913Z,72.82
2017-10-11T09:52:15.221Z,72.61
2017-10-11T09:54:44.284Z,71.40
2017-10-11T09:57:12.621Z,72.25
2017-10-11T09:59:40.926Z,71.43
2017-10-11T10:02:09.240Z,71.60
2017-10-11T10:04:38.558Z,71.78
2017-10-11T10:07:06.862Z,71.81
2017-10-11T10:09:35.170Z,72.53
2017-10-11T10:12:03.466Z,72.23
2017-10-11T10:14:32.545Z,71.93
2017-10-11T10:17:00.845Z,71.85
2017-10-11T10:19:29.917Z,70.93
2017-10-11T10:21:58.215Z,70.73
2017-10-11T10:24:27.323Z,69.97
2017-10-11T10:26:55.625Z,69.36
2017-10-11T10:29:23.913Z,69.78
2017-10-11T10:31:52.237Z,69.56
2017-10-11T10:34:21.312Z,67.66
2017-10-11T10:36:49.633Z,68.83
2017-10-11T10:39:17.948Z,69.62
2017-10-11T10:41:46.257Z,69.78
2017-10-11T10:44:15.333Z,69.77
2017-10-11T10:46:43.669Z,70.30
2017-10-11T10:49:11.965Z,70.60
2017-10-11T10:51:40.325Z,71.04
2017-10-11T10:54:08.637Z,71.63
2017-10-11T10:56:36.936Z,71.97
2017-10-11T10:59:05.250Z,72.00
2017-10-11T11:01:33.550Z,72.14
2017-10-11T11:04:01.862Z,69.82
2017-10-11T11:06:30.943Z,70.31
2017-10-11T11:08:59.269Z,70.36
2017-10-11T11:11:27.585Z,70.27
2017-10-11T11:13:55.925Z,70.05
2017-10-11T11:16:24.221Z,69.55
2017-10-11T11:18:52.846Z,69.98
2017-10-11T11:21:21.174Z,70.53
2017-10-11T11:23:49.476Z,71.26
2017-10-11T11:26:17.794Z,70.84
2017-10-11T11:28:46.873Z,69.86
2017-10-11T11:31:15.209Z,68.67
2017-10-11T11:33:43.516Z,69.25
2017-10-11T11:36:11.845Z,69.42
2017-10-11T11:38:40.147Z,69.71
2017-10-11T11:41:08.438Z,70.24
2017-10-11T11:43:36.741Z,69.70
2017-10-11T11:46:05.040Z,70.35
2017-10-11T11:48:34.122Z,70.86
2017-10-11T11:51:03.185Z,71.09
2017-10-11T11:53:31.485Z,71.62
2017-10-11T11:55:59.774Z,70.42
2017-10-11T11:58:28.111Z,71.05
2017-10-11T12:00:56.409Z,71.12
2017-10-11T12:03:29.649Z,71.35
2017-10-11T12:05:57.957Z,71.62
2017-10-11T12:08:26.250Z,71.95
2017-10-11T12:10:54.557Z,72.04
2017-10-11T12:13:23.626Z,71.75
2017-10-11T12:15:51.937Z,71.68
2017-10-11T12:18:21.005Z,72.05
2017-10-11T12:20:49.331Z,71.08
2017-10-11T12:23:17.621Z,71.41
2017-10-11T12:25:45.925Z,71.78
2017-10-11T12:28:14.333Z,71.39
2017-10-11T12:30:43.433Z,70.91
2017-10-11T12:33:12.593Z,70.34
2017-10-11T12:35:40.909Z,69.75
2017-10-11T12:38:09.977Z,69.48
2017-10-11T12:40:38.268Z,69.42
2017-10-11T12:43:06.573Z,70.11
2017-10-11T12:45:34.862Z,69.84
2017-10-11T12:48:03.168Z,69.81
2017-10-11T12:50:31.464Z,70.50
2017-10-11T12:52:59.777Z,70.54
2017-10-11T12:55:28.076Z,70.24
2017-10-11T12:57:56.380Z,70.11
2017-10-11T13:00:24.674Z,69.95
2017-10-11T13:02:53.007Z,70.38
2017-10-11T13:05:21.301Z,70.46
2017-10-11T13:07:49.588Z,70.83
2017-10-11T13:10:17.890Z,71.15
2017-10-11T13:12:46.957Z,70.49
2017-10-11T13:15:16.053Z,70.89
2017-10-11T13:17:44.381Z,70.90
2017-10-11T13:20:12.693Z,70.38
2017-10-11T13:22:40.986Z,71.07
2017-10-11T13:25:09.284Z,72.01
2017-10-11T13:27:37.588Z,71.52
2017-10-11T13:30:06.649Z,70.90
2017-10-11T13:32:34.945Z,70.46
2017-10-11T13:35:04.022Z,71.15
2017-10-11T13:37:32.332Z,71.22
2017-10-11T13:40:00.633Z,71.34
2017-10-11T13:42:28.951Z,71.73
2017-10-11T13:44:57.262Z,71.04
2017-10-11T13:47:25.568Z,70.96
2017-10-11T13:49:53.853Z,71.23
2017-10-11T13:52:22.201Z,71.01
2017-10-11T13:54:50.498Z,71.73
2017-10-11T13:57:18.795Z,71.97
2017-10-11T13:59:47.095Z,72.07
2017-10-11T14:02:15.405Z,72.30
2017-10-11T14:04:43.711Z,72.52
2017-10-11T14:07:12.001Z,71.96
2017-10-11T14:09:40.305Z,71.89
2017-10-11T14:12:09.377Z,71.69
2017-10-11T14:14:37.685Z,71.67
2017-10-11T14:17:06.750Z,71.86
2017-10-11T14:19:35.054Z,72.22
2017-10-11T14:22:04.125Z,71.81
2017-10-11T14:24:32.416Z,71.64
2017-10-11T14:27:00.723Z,71.09
2017-10-11T14:29:29.781Z,70.79
2017-10-11T14:31:58.094Z,71.15
2017-10-11T14:34:27.174Z,71.52
2017-10-11T14:36:56.251Z,71.99
2017-10-11T14:39:24.556Z,71.69
2017-10-11T14:41:53.669Z,71.94
2017-10-11T14:44:21.978Z,72.36
2017-10-11T14:46:50.844Z,72.23
2017-10-11T14:49:19.153Z,72.21
2017-10-11T14:51:47.442Z,72.33
2017-10-11T14:54:15.749Z,72.46
2017-10-11T14:56:44.827Z,72.49
2017-10-11T14:59:13.158Z,72.72
2017-10-11T15:01:41.464Z,73.08
2017-10-11T15:04:09.784Z,73.15
2017-10-11T15:06:38.089Z,73.39
2017-10-11T15:09:06.410Z,73.83
2017-10-11T15:11:34.732Z,73.78
2017-10-11T15:14:03.055Z,74.32
2017-10-11T15:16:31.378Z,75.09
2017-10-11T15:18:59.707Z,74.76
2017-10-11T15:21:28.022Z,74.78
2017-10-11T15:23:57.080Z,75.05
2017-10-11T15:26:25.385Z,75.15
2017-10-11T15:28:54.449Z,75.25
2017-10-11T15:31:22.756Z,75.02
2017-10-11T15:33:51.837Z,75.02
2017-10-11T15:36:20.189Z,75.08
2017-10-11T15:38:48.486Z,75.49
2017-10-11T15:41:16.804Z,75.22
2017-10-11T15:43:45.100Z,74.97
2017-10-11T15:46:13.429Z,75.36
2017-10-11T15:48:41.721Z,75.67
2017-10-11T15:51:10.785Z,75.23
2017-10-11T15:53:39.093Z,74.98
2017-10-11T15:56:08.155Z,74.42
2017-10-11T15:58:36.471Z,74.81
2017-10-11T16:01:05.538Z,74.49
2017-10-11T16:03:33.848Z,73.84
2017-10-11T16:06:02.148Z,73.81
2017-10-11T16:08:30.457Z,73.99
2017-10-11T16:10:58.753Z,74.23
2017-10-11T16:13:27.077Z,74.31
2017-10-11T16:15:55.368Z,74.27
2017-10-11T16:18:23.665Z,74.47
2017-10-11T16:20:51.974Z,74.63
2017-10-11T16:23:21.034Z,74.59
2017-10-11T16:25:49.342Z,74.66
2017-10-11T16:28:18.401Z,74.49
2017-10-11T16:30:46.722Z,74.85
2017-10-11T16:33:15.798Z,74.92
2017-10-11T16:35:44.115Z,74.92
2017-10-11T16:38:12.415Z,74.77
2017-10-11T16:40:40.717Z,75.25
2017-10-11T16:43:09.018Z,74.60
2017-10-11T16:45:38.134Z,74.90
2017-10-11T16:48:06.425Z,74.87
2017-10-11T16:50:34.714Z,74.72
2017-10-11T16:53:03.024Z,75.02
2017-10-11T16:55:31.328Z,74.91
2017-10-11T16:58:00.406Z,75.02
2017-10-11T17:00:28.699Z,75.26
2017-10-11T17:02:57.768Z,74.99
2017-10-11T17:05:26.056Z,75.57
2017-10-11T17:07:54.368Z,75.58
2017-10-11T17:10:22.673Z,75.45
2017-10-11T17:12:51.017Z,75.20
2017-10-11T17:15:19.353Z,75.25
2017-10-11T17:17:47.684Z,74.92
2017-10-11T17:20:16.071Z,74.74
2017-10-11T17:22:44.398Z,74.83
2017-10-11T17:25:12.708Z,74.86
2017-10-11T17:27:40.997Z,74.98
2017-10-11T17:30:09.295Z,74.90
2017-10-11T17:32:37.594Z,74.86
2017-10-11T17:35:05.894Z,74.48
2017-10-11T17:37:34.975Z,73.93
2017-10-11T17:40:03.304Z,74.10
2017-10-11T17:42:31.605Z,73.98
2017-10-11T17:44:59.925Z,73.94
2017-10-11T17:47:28.989Z,74.11
2017-10-11T17:49:57.293Z,74.20
2017-10-11T17:52:26.350Z,73.50
2017-10-11T17:54:54.662Z,73.06
2017-10-11T17:57:22.976Z,73.28
2017-10-11T17:59:51.281Z,73.15
2017-10-11T18:02:19.594Z,73.32
2017-10-11T18:04:48.656Z,73.47
2017-10-11T18:07:16.958Z,73.39
2017-10-11T18:09:46.021Z,72.89
2017-10-11T18:12:14.351Z,72.85
2017-10-11T18:14:42.647Z,73.20
2017-10-11T18:17:10.958Z,73.37
2017-10-11T18:19:39.265Z,73.34
2017-10-11T18:22:08.369Z,72.82
2017-10-11T18:24:37.458Z,72.19
2017-10-11T18:27:06.538Z,71.69
2017-10-11T18:29:34.868Z,71.60
2017-10-11T18:32:03.170Z,71.35
2017-10-11T18:34:31.483Z,71.58
2017-10-11T18:37:00.557Z,71.27
2017-10-11T18:39:28.879Z,71.16
2017-10-11T18:41:57.169Z,71.05
2017-10-11T18:44:25.479Z,70.92
2017-10-11T18:46:53.791Z,71.07
2017-10-11T18:49:22.894Z,71.13
2017-10-11T18:51:51.193Z,71.37
2017-10-11T18:54:19.480Z,71.32
2017-10-11T18:56:48.592Z,71.30
2017-10-11T18:59:16.906Z,71.56
2017-10-11T19:01:45.214Z,71.68
2017-10-11T19:04:13.505Z,71.51
2017-10-11T19:06:41.887Z,71.17
2017-10-11T19:09:10.189Z,71.39
2017-10-11T19:11:38.510Z,71.70
2017-10-11T19:14:07.585Z,71.68
2017-10-11T19:16:36.727Z,71.32
2017-10-11T19:19:05.018Z,71.20
2017-10-11T19:21:33.355Z,71.57
2017-10-11T19:24:02.410Z,71.31
2017-10-11T19:26:30.715Z,71.31
2017-10-11T19:28:59.799Z,71.00
2017-10-11T19:31:28.108Z,70.81
2017-10-11T19:33:56.408Z,70.72
2017-10-11T19:36:24.714Z,70.46
2017-10-11T19:38:53.042Z,70.24
2017-10-11T19:41:21.351Z,70.37
2017-10-11T19:43:49.690Z,70.51
2017-10-11T19:46:18.001Z,70.26
2017-10-11T19:48:46.312Z,70.29
2017-10-11T19:51:14.612Z,70.17
2017-10-11T19:53:43.718Z,70.74
2017-10-11T19:56:12.801Z,70.25
2017-10-11T19:58:41.869Z,70.19
2017-10-11T20:01:10.181Z,70.06
2017-10-11T20:03:39.247Z,70.33
2017-10-11T20:06:07.551Z,70.25
2017-10-11T20:08:35.850Z,70.36
2017-10-11T20:11:04.163Z,70.21
2017-10-11T20:13:33.233Z,70.53
2017-10-11T20:16:01.553Z,70.73
2017-10-11T20:18:29.854Z,71.41
2017-10-11T20:20:58.937Z,71.71
2017-10-11T20:26:01.819Z,72.20
2017-10-11T20:28:30.811Z,71.74
2017-10-11T20:30:59.104Z,71.36
2017-10-11T20:33:27.414Z,71.07
2017-10-11T20:35:55.710Z,70.69
2017-10-11T20:38:24.019Z,70.56
2017-10-11T20:40:52.326Z,70.39
2017-10-11T20:43:21.400Z,70.40
2017-10-11T20:45:49.698Z,70.67
2017-10-11T20:48:18.823Z,70.79
2017-10-11T20:50:47.125Z,70.80
2017-10-11T20:53:15.428Z,70.29
2017-10-11T20:55:43.765Z,70.50
2017-10-11T20:58:12.069Z,70.79
2017-10-11T21:00:40.386Z,71.12
2017-10-11T21:03:09.461Z,71.21
2017-10-11T21:05:38.554Z,71.38
2017-10-11T21:08:06.849Z,71.37
2017-10-11T21:10:35.940Z,71.35
2017-10-11T21:13:05.031Z,72.05
2017-10-11T21:15:34.100Z,72.31
2017-10-11T21:18:02.409Z,72.64
2017-10-11T21:20:31.473Z,72.81
2017-10-11T21:22:59.777Z,72.75
2017-10-11T21:25:28.862Z,73.06
2017-10-11T21:27:57.944Z,73.33
2017-10-11T21:30:26.257Z,73.77
2017-10-11T21:32:55.329Z,73.91
2017-10-11T21:35:23.626Z,74.24
2017-10-11T21:37:52.728Z,74.10
2017-10-11T21:40:21.060Z,74.00
2017-10-11T21:42:49.357Z,74.06
2017-10-11T21:45:17.669Z,73.12
2017-10-11T21:47:45.970Z,72.91
2017-10-11T21:50:14.281Z,72.99
2017-10-11T21:52:42.588Z,72.73
2017-10-11T21:55:11.661Z,72.80
2017-10-11T21:57:39.952Z,73.08
2017-10-11T22:00:09.021Z,73.19
2017-10-11T22:02:37.314Z,73.49
2017-10-11T22:05:06.391Z,74.24
2017-10-11T22:07:34.681Z,74.63
2017-10-11T22:10:03.014Z,75.48
2017-10-11T22:12:31.322Z,75.92
2017-10-11T22:14:59.621Z,76.38
2017-10-11T22:17:28.698Z,76.57
2017-10-11T22:19:56.992Z,76.40
2017-10-11T22:22:26.071Z,77.07
2017-10-11T22:24:54.367Z,77.28
2017-10-11T22:27:23.451Z,77.31
2017-10-11T22:29:51.753Z,77.11
2017-10-11T22:32:20.089Z,76.85
2017-10-11T22:34:48.385Z,76.58
2017-10-11T22:37:17.465Z,76.81
2017-10-11T22:39:45.784Z,77.21
2017-10-11T22:42:14.086Z,77.56
2017-10-11T22:44:42.406Z,77.55
2017-10-11T22:47:10.745Z,77.81
2017-10-11T22:49:39.056Z,77.98
2017-10-11T22:52:07.353Z,78.20
2017-10-11T22:54:36.434Z,77.95
2017-10-11T22:57:04.743Z,77.52
2017-10-11T22:59:33.061Z,77.23
2017-10-11T23:02:01.379Z,76.97
2017-10-11T23:04:29.691Z,76.88
2017-10-11T23:06:58.040Z,76.59
2017-10-11T23:09:27.104Z,75.99
2017-10-11T23:11:55.417Z,75.93
2017-10-11T23:14:23.733Z,76.26
2017-10-11T23:16:52.039Z,76.34
2017-10-11T23:19:20.331Z,76.95
2017-10-11T23:21:48.640Z,77.24
2017-10-11T23:24:16.940Z,77.37
2017-10-11T23:26:45.237Z,77.86
2017-10-11T23:29:13.553Z,78.26
2017-10-11T23:31:42.637Z,78.90
2017-10-11T23:34:11.712Z,79.35
2017-10-11T23:36:40.013Z,80.04
2017-10-11T23:39:08.321Z,80.26
2017-10-11T23:41:36.757Z,79.66
2017-10-11T23:44:05.065Z,78.73
2017-10-11T23:46:33.380Z,78.42
2017-10-11T23:49:01.734Z,77.87
2017-10-11T23:51:30.045Z,77.36
2017-10-11T23:53:58.333Z,77.33
2017-10-11T23:56:26.633Z,77.56
2017-10-11T23:58:55.701Z,77.65
